createdAt,value
2019-01-22T00:02:18.554Z,50
2019-01-22T00:07:41.257Z,49.099998
2019-01-22T00:13:03.957Z,49.700001
2019-01-22T00:18:26.832Z,48.599998
2019-01-22T00:23:49.541Z,45.099998
2019-01-22T00:29:12.280Z,48
2019-01-22T00:34:34.947Z,50.400002
2019-01-22T00:39:57.703Z,48.5
2019-01-22T00:45:22.256Z,48.099998
2019-01-22T00:50:45.056Z,50
2019-01-22T00:56:07.813Z,47.299999
2019-01-22T01:01:30.503Z,51.5
2019-01-22T01:06:53.191Z,50.799999
2019-01-22T01:12:16.012Z,47.799999
2019-01-22T01:17:38.729Z,51.599998
2019-01-22T01:23:02.331Z,47.700001
2019-01-22T01:28:25.645Z,49.299999
2019-01-22T01:33:48.336Z,50.400002
2019-01-22T01:39:11.022Z,51.599998
2019-01-22T01:44:33.707Z,49.400002
2019-01-22T01:49:56.411Z,45.700001
2019-01-22T01:55:19.106Z,48.799999
2019-01-22T02:00:41.827Z,45.400002
2019-01-22T02:06:04.511Z,42.599998
2019-01-22T02:11:27.285Z,49.799999
2019-01-22T02:16:50.074Z,51.099998
2019-01-22T02:22:12.836Z,48.400002
2019-01-22T02:27:35.635Z,50
2019-01-22T02:32:58.298Z,50.200001
2019-01-22T02:38:21.207Z,50.299999
2019-01-22T02:43:44.699Z,48.200001
2019-01-22T02:49:09.316Z,48.400002
2019-01-22T02:54:32.003Z,51.700001
2019-01-22T02:59:54.712Z,46.599998
2019-01-22T03:05:17.450Z,48.799999
2019-01-22T03:10:40.127Z,46.900002
2019-01-22T03:16:02.876Z,50.900002
2019-01-22T03:21:25.960Z,47.900002
2019-01-22T03:26:48.627Z,51.400002
2019-01-22T03:32:11.384Z,49.5
2019-01-22T03:37:34.093Z,48.599998
2019-01-22T03:42:56.937Z,45.5
2019-01-22T03:48:19.616Z,44.799999
2019-01-22T03:53:42.398Z,42.900002
2019-01-22T03:59:05.060Z,44.200001
2019-01-22T04:04:27.802Z,44.900002
2019-01-22T04:09:52.017Z,43
2019-01-22T04:15:14.652Z,42.5
2019-01-22T04:20:37.465Z,40.099998
2019-01-22T04:26:00.259Z,40.700001
2019-01-22T04:31:23.043Z,41.299999
2019-01-22T04:36:45.721Z,41.799999
2019-01-22T04:42:08.455Z,42
2019-01-22T04:47:31.157Z,36.900002
2019-01-22T04:52:54.099Z,35.900002
2019-01-22T04:58:17.622Z,34.400002
2019-01-22T05:03:41.263Z,34.400002
2019-01-22T05:09:03.953Z,36.700001
2019-01-22T05:14:26.703Z,32.099998
2019-01-22T05:19:49.484Z,31.6
2019-01-22T05:25:12.179Z,30.5
2019-01-22T05:30:34.908Z,28.799999
2019-01-22T05:35:57.700Z,30.6
2019-01-22T05:41:20.375Z,27.6
2019-01-22T05:46:43.043Z,29.700001
2019-01-22T05:52:05.729Z,27.799999
2019-01-22T05:57:28.497Z,30.5
2019-01-22T06:02:51.259Z,28.299999
2019-01-22T06:08:13.909Z,30.5
2019-01-22T06:13:36.581Z,27.200001
2019-01-22T06:18:59.401Z,27.9
2019-01-22T06:24:22.141Z,31.4
2019-01-22T06:29:44.801Z,28.6
2019-01-22T06:35:07.830Z,25.9
2019-01-22T06:40:30.735Z,27
2019-01-22T06:45:54.080Z,25.200001
2019-01-22T06:51:17.374Z,27.799999
2019-01-22T06:56:40.372Z,26.4
2019-01-22T07:02:03.425Z,24.6
2019-01-22T07:07:26.485Z,24.200001
2019-01-22T07:12:49.498Z,25.700001
2019-01-22T07:18:12.483Z,26.9
2019-01-22T07:23:35.204Z,20.9
2019-01-22T07:28:58.738Z,20.799999
2019-01-22T07:34:21.757Z,22.799999
2019-01-22T07:39:45.875Z,21
2019-01-22T07:45:08.911Z,20.4
2019-01-22T07:50:31.940Z,23.299999
2019-01-22T07:55:54.896Z,23.200001
2019-01-22T08:01:17.956Z,21.200001
2019-01-22T08:06:40.915Z,23.1
2019-01-22T08:12:03.994Z,19.4
2019-01-22T08:17:26.961Z,20.9
2019-01-22T08:22:50.009Z,18.700001
2019-01-22T08:28:13.019Z,19.299999
2019-01-22T08:33:35.856Z,17.1
2019-01-22T08:38:58.780Z,18.700001
2019-01-22T08:44:21.778Z,20.5
2019-01-22T08:49:45.926Z,18.5
2019-01-22T08:55:09.020Z,19.5
2019-01-22T09:00:34.185Z,20.1
2019-01-22T09:05:55.480Z,20.5
2019-01-22T09:11:18.372Z,21.4
2019-01-22T09:16:42.241Z,19.6
2019-01-22T09:22:04.869Z,21.1
2019-01-22T09:27:28.543Z,19.700001
2019-01-22T09:32:51.818Z,20.5
2019-01-22T09:38:15.133Z,20.9
2019-01-22T09:43:37.821Z,18.9
2019-01-22T09:49:00.511Z,18.5
2019-01-22T09:54:23.767Z,17.299999
2019-01-22T09:59:46.451Z,18.6
2019-01-22T10:05:09.143Z,16.299999
2019-01-22T10:10:31.872Z,19.6
2019-01-22T10:15:54.599Z,17.799999
2019-01-22T10:21:17.300Z,18.299999
2019-01-22T10:26:41.916Z,19.5
2019-01-22T10:32:06.126Z,16
2019-01-22T10:37:29.154Z,17.1
2019-01-22T10:42:53.441Z,17.299999
2019-01-22T10:48:18.309Z,14
2019-01-22T10:53:41.804Z,12.9
2019-01-22T10:59:05.105Z,20.6
2019-01-22T11:04:28.083Z,15.8
2019-01-22T11:09:50.848Z,14.5
2019-01-22T11:15:14.493Z,14.1
2019-01-22T11:20:38.249Z,13.5
2019-01-22T11:26:01.103Z,14.8
2019-01-22T11:31:23.869Z,16
2019-01-22T11:36:46.913Z,14.7
2019-01-22T11:42:10.618Z,13.5
2019-01-22T11:47:33.380Z,15.8
2019-01-22T11:52:56.585Z,14.4
2019-01-22T11:58:19.348Z,13
2019-01-22T12:03:42.384Z,16.1
2019-01-22T12:09:05.360Z,14.2
2019-01-22T12:14:28.435Z,14.4
2019-01-22T12:19:51.560Z,17.299999
2019-01-22T12:25:14.389Z,13
2019-01-22T12:30:37.084Z,14.1
2019-01-22T12:35:59.778Z,15.1
2019-01-22T12:41:22.462Z,18.1
2019-01-22T12:46:46.534Z,15.7
2019-01-22T12:52:09.666Z,14.2
2019-01-22T12:57:32.784Z,14.6
2019-01-22T13:02:56.784Z,16.200001
2019-01-22T13:08:19.788Z,15.6
2019-01-22T13:13:42.569Z,13.5
2019-01-22T13:19:05.585Z,13.3
2019-01-22T13:24:28.316Z,14.7
2019-01-22T13:29:51.564Z,17.200001
2019-01-22T13:35:14.519Z,12.8
2019-01-22T13:40:37.523Z,13.8
2019-01-22T13:46:00.314Z,15.6
2019-01-22T13:51:23.246Z,13.9
2019-01-22T13:56:46.450Z,17
2019-01-22T14:02:09.313Z,15.8
2019-01-22T14:07:31.977Z,16.700001
2019-01-22T14:12:56.652Z,17.6
2019-01-22T14:18:18.211Z,17
2019-01-22T14:23:40.931Z,18.1
2019-01-22T14:29:05.459Z,20.6
2019-01-22T14:34:28.695Z,21.6
2019-01-22T14:39:51.490Z,21
2019-01-22T14:45:14.153Z,20.4
2019-01-22T14:50:36.797Z,20.6
2019-01-22T14:55:59.738Z,25.4
2019-01-22T15:01:22.674Z,23.6
2019-01-22T15:06:45.392Z,31.299999
2019-01-22T15:12:08.159Z,27
2019-01-22T15:17:31.050Z,24.9
2019-01-22T15:22:53.906Z,26.9
2019-01-22T15:28:16.868Z,26.799999
2019-01-22T15:33:39.917Z,28.5
2019-01-22T15:39:02.727Z,31.9
2019-01-22T15:44:25.842Z,34.299999
2019-01-22T15:49:48.857Z,31.9
2019-01-22T15:55:11.840Z,32.700001
2019-01-22T16:00:34.854Z,34.200001
2019-01-22T16:05:57.840Z,35.400002
2019-01-22T16:11:20.958Z,33.400002
2019-01-22T16:16:44.033Z,36.599998
2019-01-22T16:22:07.146Z,38.200001
2019-01-22T16:27:30.131Z,35
2019-01-22T16:32:55.271Z,34.700001
2019-01-22T16:38:18.304Z,33.799999
2019-01-22T16:43:41.257Z,35
2019-01-22T16:49:04.415Z,35.799999
2019-01-22T16:54:27.690Z,33.700001
2019-01-22T16:59:50.539Z,34.599998
2019-01-22T17:05:13.672Z,34.200001
2019-01-22T17:10:36.800Z,31
2019-01-22T17:15:59.741Z,34.900002
2019-01-22T17:21:22.567Z,36.799999
2019-01-22T17:26:45.272Z,37.900002
2019-01-22T17:32:08.140Z,34.299999
2019-01-22T17:37:32.308Z,34.5
2019-01-22T17:42:55.565Z,38.099998
2019-01-22T17:48:18.555Z,37.299999
2019-01-22T17:53:41.557Z,33.099998
2019-01-22T17:59:04.650Z,33.700001
2019-01-22T18:04:31.457Z,35.599998
2019-01-22T18:09:54.594Z,36.299999
2019-01-22T18:15:19.783Z,38.400002
2019-01-22T18:20:42.875Z,34.700001
2019-01-22T18:26:05.982Z,36.299999
2019-01-22T18:31:30.779Z,35.200001
2019-01-22T18:36:53.467Z,38
2019-01-22T18:42:16.154Z,36.799999
2019-01-22T18:47:38.812Z,37.099998
2019-01-22T18:53:02.129Z,37.299999
2019-01-22T18:58:24.985Z,36.5
2019-01-22T19:03:48.290Z,37.799999
2019-01-22T19:09:11.299Z,34.599998
2019-01-22T19:14:34.258Z,37.200001
2019-01-22T19:19:57.162Z,37.599998
2019-01-22T19:25:20.227Z,35.799999
2019-01-22T19:30:43.140Z,35.700001
2019-01-22T19:36:06.168Z,34.299999
2019-01-22T19:41:29.272Z,31.4
2019-01-22T19:46:52.333Z,33.099998
2019-01-22T19:52:15.349Z,35.700001
2019-01-22T19:57:41.044Z,31.299999
2019-01-22T20:03:01.356Z,31.700001
2019-01-22T20:08:24.130Z,34.5
2019-01-22T20:13:46.998Z,33.900002
2019-01-22T20:19:09.682Z,30.299999
2019-01-22T20:24:32.389Z,32.700001
2019-01-22T20:29:55.122Z,33.700001
2019-01-22T20:35:17.832Z,33.599998
2019-01-22T20:40:40.529Z,32.400002
2019-01-22T20:46:05.213Z,32.299999
2019-01-22T20:51:27.941Z,33.400002
2019-01-22T20:56:50.927Z,33.299999
2019-01-22T21:02:13.906Z,33.599998
2019-01-22T21:07:36.974Z,37.599998
2019-01-22T21:12:59.984Z,32.900002
2019-01-22T21:18:22.846Z,33.200001
2019-01-22T21:23:45.714Z,33.5
2019-01-22T21:29:08.680Z,33.700001
2019-01-22T21:34:30.489Z,38.200001
2019-01-22T21:39:53.400Z,36.599998
2019-01-22T21:45:16.357Z,38
2019-01-22T21:50:39.109Z,36.900002
2019-01-22T21:56:01.918Z,34
2019-01-22T22:01:24.642Z,39
2019-01-22T22:06:47.829Z,36
2019-01-22T22:12:10.091Z,37.200001
2019-01-22T22:17:32.863Z,37.400002
2019-01-22T22:22:55.592Z,37
2019-01-22T22:28:18.296Z,40.200001
2019-01-22T22:33:41.263Z,40.700001
2019-01-22T22:39:03.971Z,39.5
2019-01-22T22:44:26.620Z,44.400002
2019-01-22T22:49:49.378Z,43.200001
2019-01-22T22:55:12.084Z,46.200001
2019-01-22T23:00:34.831Z,45.599998
2019-01-22T23:05:57.564Z,46.700001
2019-01-22T23:11:20.944Z,47.299999
2019-01-22T23:16:43.666Z,45.599998
2019-01-22T23:22:06.458Z,45.099998
2019-01-22T23:27:29.170Z,44.200001
2019-01-22T23:32:51.960Z,46
2019-01-22T23:38:14.701Z,48.5
2019-01-22T23:43:37.400Z,41.799999
2019-01-22T23:49:00.442Z,46.400002
2019-01-22T23:54:23.269Z,48.299999
2019-01-22T23:59:46.056Z,48.900002
